Time;durP1;ratioP1;P1;durP2;ratioP2;P2;SDS_P1;SDS_P2;PMS_P1;PMS_P2;Temp;Humidity;BMP_temperature;BMP_pressure;BME280_temperature;BME280_humidity;BME280_pressure;Samples;Min_cycle;Max_cycle;Signal;HPM_P1;HPM_P2
2023/10/11 00:08:39;;;;;;;28.58;16.88;;;;;;;;;;10092149;28;20041;-72
2023/10/11 00:13:35;;;;;;;28.33;16.98;;;;;;;;;;10130783;28;20413;-72
2023/10/11 00:18:27;;;;;;;29.63;21.40;;;;;;;;;;10137363;28;20041;-72
2023/10/11 00:23:22;;;;;;;39.65;25.80;;;;;;;;;;10138986;28;20036;-69
2023/10/11 00:28:14;;;;;;;31.77;22.77;;;;;;;;;;10139095;28;20429;-71
2023/10/11 00:33:10;;;;;;;36.13;24.95;;;;;;;;;;10128129;28;20059;-71
2023/10/11 00:38:26;;;;;;;30.23;23.65;;;;;;;;;;10130921;28;20055;-70
2023/10/11 00:43:34;;;;;;;32.40;23.48;;;;;;;;;;10146337;28;20032;-68
2023/10/11 00:48:29;;;;;;;33.17;21.20;;;;;;;;;;10143321;28;20102;-72
2023/10/11 00:53:21;;;;;;;25.65;19.50;;;;;;;;;;10096092;28;20106;-72
2023/10/11 00:58:15;;;;;;;33.28;21.55;;;;;;;;;;10145644;28;20040;-72
2023/10/11 01:03:08;;;;;;;37.63;22.63;;;;;;;;;;10113784;28;20446;-72
2023/10/11 01:08:00;;;;;;;31.75;19.80;;;;;;;;;;10141930;28;20051;-72
2023/10/11 01:12:52;;;;;;;29.80;19.88;;;;;;;;;;10111061;28;20090;-72
2023/10/11 01:17:44;;;;;;;24.98;16.85;;;;;;;;;;10111616;28;20123;-72
2023/10/11 01:22:36;;;;;;;27.50;19.15;;;;;;;;;;10144692;28;20798;-70
2023/10/11 01:27:30;;;;;;;24.27;17.42;;;;;;;;;;10143320;28;20068;-70
2023/10/11 01:32:22;;;;;;;27.08;18.20;;;;;;;;;;10146137;28;20060;-71
2023/10/11 01:37:14;;;;;;;33.85;22.63;;;;;;;;;;10109216;28;20462;-72
2023/10/11 01:42:06;;;;;;;28.30;20.73;;;;;;;;;;10142300;28;20036;-71
2023/10/11 01:46:58;;;;;;;34.00;22.33;;;;;;;;;;10142886;28;20024;-71
2023/10/11 01:51:52;;;;;;;39.35;23.25;;;;;;;;;;10133830;28;20064;-72
2023/10/11 01:56:45;;;;;;;30.80;20.52;;;;;;;;;;10142775;28;20076;-70
2023/10/11 02:01:40;;;;;;;33.72;22.25;;;;;;;;;;10125269;28;20127;-71
2023/10/11 02:06:34;;;;;;;37.83;22.38;;;;;;;;;;10127768;28;20063;-71
2023/10/11 02:11:29;;;;;;;30.15;21.45;;;;;;;;;;10114354;28;20045;-70
2023/10/11 02:16:21;;;;;;;32.13;21.63;;;;;;;;;;10126373;28;20072;-71
2023/10/11 02:21:13;;;;;;;35.47;21.45;;;;;;;;;;10142922;28;20044;-71
2023/10/11 02:26:12;;;;;;;36.20;21.08;;;;;;;;;;10138030;28;20478;-72
2023/10/11 02:31:04;;;;;;;;;;;;;;;;;;10134607;28;20052;-70
2023/10/11 02:35:56;;;;;;;34.20;22.98;;;;;;;;;;10140719;28;19975;-71
2023/10/11 02:40:55;;;;;;;38.75;23.83;;;;;;;;;;10142479;28;20131;-72
2023/10/11 02:45:47;;;;;;;37.77;25.50;;;;;;;;;;10140021;28;20041;-69
2023/10/11 02:50:41;;;;;;;38.40;24.13;;;;;;;;;;10137252;28;20475;-70
2023/10/11 02:55:38;;;;;;;43.67;25.63;;;;;;;;;;10136249;28;20433;-71
2023/10/11 03:00:32;;;;;;;35.95;23.15;;;;;;;;;;10136425;28;20048;-72
2023/10/11 03:05:27;;;;;;;33.38;24.60;;;;;;;;;;10137783;28;20129;-71
2023/10/11 03:10:20;;;;;;;33.10;21.60;;;;;;;;;;10091870;28;20417;-71
2023/10/11 03:15:13;;;;;;;41.85;22.95;;;;;;;;;;10121552;28;20098;-72
2023/10/11 03:20:24;;;;;;;34.00;20.58;;;;;;;;;;10140977;28;20130;-72
2023/10/11 03:25:18;;;;;;;34.60;20.88;;;;;;;;;;10140052;28;20076;-71
2023/10/11 03:30:13;;;;;;;36.75;20.63;;;;;;;;;;10136578;28;20037;-71
2023/10/11 03:35:07;;;;;;;29.70;20.30;;;;;;;;;;10114274;28;20131;-71
2023/10/11 03:40:00;;;;;;;36.95;22.33;;;;;;;;;;10135790;28;20154;-71
2023/10/11 03:44:53;;;;;;;33.67;22.30;;;;;;;;;;10138925;28;20083;-72
2023/10/11 03:49:51;;;;;;;31.73;20.50;;;;;;;;;;10139086;28;20072;-72
2023/10/11 03:54:45;;;;;;;26.27;18.33;;;;;;;;;;10137820;28;20544;-71
2023/10/11 03:59:39;;;;;;;25.80;16.77;;;;;;;;;;10139339;28;20132;-71
2023/10/11 04:04:31;;;;;;;26.70;17.88;;;;;;;;;;10141104;28;20048;-71
2023/10/11 04:09:37;;;;;;;28.17;16.60;;;;;;;;;;10145772;28;20123;-72
2023/10/11 04:14:44;;;;;;;23.02;15.10;;;;;;;;;;10145582;28;20437;-71
2023/10/11 04:19:40;;;;;;;25.20;15.68;;;;;;;;;;10138756;28;20099;-71
2023/10/11 04:24:36;;;;;;;29.65;17.90;;;;;;;;;;10146333;28;20055;-71
2023/10/11 04:29:31;;;;;;;27.30;17.05;;;;;;;;;;10145631;28;20044;-72
2023/10/11 04:34:24;;;;;;;24.38;16.55;;;;;;;;;;10145358;28;20055;-72
2023/10/11 04:39:27;;;;;;;26.30;16.83;;;;;;;;;;10146420;28;20044;-71
2023/10/11 04:44:19;;;;;;;23.38;15.57;;;;;;;;;;10143195;28;20338;-71
2023/10/11 04:49:18;;;;;;;27.80;16.88;;;;;;;;;;10143343;28;20415;-70
2023/10/11 04:54:14;;;;;;;25.65;16.13;;;;;;;;;;10144189;28;20044;-72
2023/10/11 04:59:07;;;;;;;21.25;15.45;;;;;;;;;;10145035;28;20390;-71
2023/10/11 05:03:59;;;;;;;17.08;13.85;;;;;;;;;;10141817;28;20056;-71
2023/10/11 05:08:51;;;;;;;24.88;14.38;;;;;;;;;;10162616;28;20053;-71
2023/10/11 05:13:59;;;;;;;18.23;14.10;;;;;;;;;;10139367;28;20048;-72
2023/10/11 05:18:50;;;;;;;19.52;13.15;;;;;;;;;;10122732;28;20455;-71
2023/10/11 05:24:03;;;;;;;23.30;13.63;;;;;;;;;;10123131;28;20037;-73
2023/10/11 05:29:13;;;;;;;24.35;12.85;;;;;;;;;;10131232;28;20040;-71
2023/10/11 05:55:07;;;;;;;20.13;11.73;;;;;;;;;;10134764;28;20045;-73
2023/10/11 06:00:10;;;;;;;21.17;12.50;;;;;;;;;;10141084;28;20052;-72
2023/10/11 06:05:02;;;;;;;23.58;13.27;;;;;;;;;;10140268;28;20048;-71
2023/10/11 06:09:54;;;;;;;21.25;13.02;;;;;;;;;;10141045;28;20489;-73
2023/10/11 06:14:46;;;;;;;14.90;11.57;;;;;;;;;;10139925;28;20185;-72
2023/10/11 06:19:43;;;;;;;14.35;11.55;;;;;;;;;;10140732;28;20119;-72
2023/10/11 06:24:36;;;;;;;13.38;10.95;;;;;;;;;;10139857;28;20356;-73
2023/10/11 06:29:29;;;;;;;25.75;14.50;;;;;;;;;;10139887;28;20048;-71
2023/10/11 06:39:33;;;;;;;21.52;12.23;;;;;;;;;;10140004;28;20048;-73
2023/10/11 06:44:25;;;;;;;19.23;12.40;;;;;;;;;;10140074;28;20109;-72
2023/10/11 06:49:18;;;;;;;21.30;10.65;;;;;;;;;;10139183;28;20074;-71
2023/10/11 06:54:11;;;;;;;19.27;13.65;;;;;;;;;;10139660;28;20125;-71
2023/10/11 06:59:04;;;;;;;20.83;13.52;;;;;;;;;;10134531;28;20777;-72
2023/10/11 07:03:57;;;;;;;31.13;12.95;;;;;;;;;;10139576;28;20049;-71
2023/10/11 07:08:49;;;;;;;22.85;14.32;;;;;;;;;;10139220;28;20071;-72
2023/10/11 07:13:57;;;;;;;22.17;15.48;;;;;;;;;;10138632;28;20238;-71
2023/10/11 07:18:54;;;;;;;20.08;13.40;;;;;;;;;;10136479;28;20049;-72
2023/10/11 07:28:41;;;;;;;19.38;13.80;;;;;;;;;;10137992;28;20370;-72
2023/10/11 07:33:36;;;;;;;20.90;12.23;;;;;;;;;;10138118;28;20048;-72
2023/10/11 07:38:34;;;;;;;23.05;12.13;;;;;;;;;;10137774;28;20040;-73
2023/10/11 07:43:32;;;;;;;22.15;12.30;;;;;;;;;;10137678;28;20036;-72
2023/10/11 07:48:28;;;;;;;17.88;11.18;;;;;;;;;;10127365;28;20052;-72
2023/10/11 07:53:25;;;;;;;24.97;13.63;;;;;;;;;;10137542;28;20047;-71
2023/10/11 07:58:26;;;;;;;19.13;10.55;;;;;;;;;;10136534;28;20047;-71
2023/10/11 08:03:18;;;;;;;25.25;12.30;;;;;;;;;;10133749;28;20049;-72
2023/10/11 08:08:15;;;;;;;23.02;12.63;;;;;;;;;;10137103;28;20045;-72
2023/10/11 08:13:14;;;;;;;22.13;13.32;;;;;;;;;;10134075;28;20686;-72
2023/10/11 08:18:06;;;;;;;18.30;10.85;;;;;;;;;;10135547;28;20052;-72
2023/10/11 08:22:58;;;;;;;19.00;12.57;;;;;;;;;;10134282;28;20045;-72
2023/10/11 08:27:57;;;;;;;21.73;12.60;;;;;;;;;;10132514;28;20052;-74
2023/10/11 08:32:50;;;;;;;18.50;12.88;;;;;;;;;;10115385;28;20049;-71
2023/10/11 08:37:44;;;;;;;20.10;13.25;;;;;;;;;;10137392;28;20044;-72
2023/10/11 08:42:37;;;;;;;25.10;13.98;;;;;;;;;;10137174;28;20048;-73
2023/10/11 08:47:29;;;;;;;24.52;15.50;;;;;;;;;;10137142;28;20127;-70
2023/10/11 08:52:23;;;;;;;28.75;17.55;;;;;;;;;;10141170;28;20036;-72
2023/10/11 08:57:23;;;;;;;34.45;17.30;;;;;;;;;;10142656;28;20056;-73
2023/10/11 09:02:17;;;;;;;26.55;18.23;;;;;;;;;;10142678;28;20135;-73
2023/10/11 09:07:13;;;;;;;30.83;23.00;;;;;;;;;;10142961;28;20121;-72
2023/10/11 09:12:42;;;;;;;28.05;20.80;;;;;;;;;;10142881;28;20037;-73
2023/10/11 09:17:27;;;;;;;41.58;22.42;;;;;;;;;;10136515;28;20131;-73
2023/10/11 09:22:19;;;;;;;35.30;22.10;;;;;;;;;;10143452;28;20056;-72
2023/10/11 09:32:09;;;;;;;41.65;26.60;;;;;;;;;;10140331;28;20097;-71
2023/10/11 09:37:02;;;;;;;33.38;22.23;;;;;;;;;;10142221;28;20094;-72
2023/10/11 09:42:02;;;;;;;38.05;23.00;;;;;;;;;;10142023;28;20090;-74
2023/10/11 09:46:57;;;;;;;45.17;26.35;;;;;;;;;;10142265;28;20050;-74
2023/10/11 09:51:49;;;;;;;50.00;29.65;;;;;;;;;;10108583;28;20152;-72
2023/10/11 09:57:08;;;;;;;40.13;27.83;;;;;;;;;;10108156;28;20462;-72
2023/10/11 10:02:07;;;;;;;35.40;23.13;;;;;;;;;;10106265;28;20053;-72
2023/10/11 10:07:16;;;;;;;40.85;26.50;;;;;;;;;;10101896;28;20045;-72
2023/10/11 10:12:11;;;;;;;40.03;27.30;;;;;;;;;;10140852;28;20090;-73
2023/10/11 10:17:10;;;;;;;34.33;25.25;;;;;;;;;;10140324;28;20056;-72
2023/10/11 10:22:16;;;;;;;36.83;25.45;;;;;;;;;;10141715;28;20032;-72
2023/10/11 10:27:35;;;;;;;45.92;28.48;;;;;;;;;;10137372;28;20150;-72
2023/10/11 10:32:30;;;;;;;39.85;28.15;;;;;;;;;;10136318;28;20040;-73
2023/10/11 10:38:05;;;;;;;46.25;27.15;;;;;;;;;;10140400;28;20359;-72
2023/10/11 10:43:19;;;;;;;36.95;26.58;;;;;;;;;;9941291;28;20078;-71
2023/10/11 10:48:25;;;;;;;49.50;27.00;;;;;;;;;;10103623;28;20418;-73
2023/10/11 10:53:17;;;;;;;35.97;26.33;;;;;;;;;;10137824;28;20045;-73
2023/10/11 10:58:19;;;;;;;45.67;30.10;;;;;;;;;;10122635;28;20040;-73
2023/10/11 11:03:21;;;;;;;48.97;29.05;;;;;;;;;;10136408;28;20056;-73
2023/10/11 11:08:18;;;;;;;45.95;27.10;;;;;;;;;;10134701;28;20094;-73
2023/10/11 11:13:11;;;;;;;47.83;28.58;;;;;;;;;;10129418;28;20033;-73
2023/10/11 11:18:04;;;;;;;44.47;27.52;;;;;;;;;;10137783;28;20126;-73
2023/10/11 11:22:56;;;;;;;45.75;27.70;;;;;;;;;;10137818;28;20047;-72
2023/10/11 11:28:17;;;;;;;43.13;27.30;;;;;;;;;;10138141;28;20135;-73
2023/10/11 11:33:47;;;;;;;48.47;27.10;;;;;;;;;;10132793;28;20095;-73
2023/10/11 11:38:46;;;;;;;39.63;24.73;;;;;;;;;;10134805;28;20077;-74
2023/10/11 11:43:38;;;;;;;;;;;;;;;;;;10136062;28;20043;-70
2023/10/11 11:48:40;;;;;;;36.28;25.75;;;;;;;;;;10137706;28;20033;-73
2023/10/11 11:53:32;;;;;;;44.05;27.60;;;;;;;;;;10119851;28;20131;-74
2023/10/11 11:58:29;;;;;;;34.55;26.00;;;;;;;;;;10138000;28;20102;-73
2023/10/11 12:03:23;;;;;;;31.23;23.02;;;;;;;;;;10137391;28;20049;-73
2023/10/11 12:08:18;;;;;;;35.00;25.33;;;;;;;;;;10137605;28;20040;-73
2023/10/11 12:13:13;;;;;;;35.85;23.98;;;;;;;;;;10137335;28;20044;-72
2023/10/11 12:18:09;;;;;;;39.47;25.83;;;;;;;;;;10135641;28;20052;-73
2023/10/11 12:23:08;;;;;;;45.92;28.02;;;;;;;;;;10133919;28;20055;-73
2023/10/11 12:28:03;;;;;;;37.72;23.60;;;;;;;;;;10144219;28;20068;-72
2023/10/11 12:32:55;;;;;;;42.70;26.40;;;;;;;;;;10145217;28;20044;-73
2023/10/11 12:37:49;;;;;;;31.67;22.73;;;;;;;;;;10145749;28;20139;-70
2023/10/11 12:42:45;;;;;;;35.25;24.48;;;;;;;;;;10137965;28;20049;-72
2023/10/11 12:47:37;;;;;;;38.45;24.42;;;;;;;;;;10137751;28;20044;-72
2023/10/11 12:52:33;;;;;;;36.90;26.00;;;;;;;;;;10126538;28;20047;-72
2023/10/11 12:57:27;;;;;;;36.78;22.92;;;;;;;;;;10139073;28;20060;-73
2023/10/11 13:02:21;;;;;;;40.35;23.95;;;;;;;;;;10140981;28;20049;-72
2023/10/11 13:07:16;;;;;;;36.47;24.35;;;;;;;;;;10143881;28;20075;-74
2023/10/11 13:12:08;;;;;;;37.95;24.77;;;;;;;;;;10110187;28;20062;-71
2023/10/11 13:17:05;;;;;;;38.55;24.48;;;;;;;;;;10144111;28;20090;-72
2023/10/11 13:21:58;;;;;;;34.47;22.38;;;;;;;;;;10142981;28;20140;-75
2023/10/11 13:26:51;;;;;;;30.98;22.58;;;;;;;;;;10144849;28;20045;-73
2023/10/11 13:31:53;;;;;;;40.65;22.73;;;;;;;;;;10144000;28;20036;-74
2023/10/11 13:36:45;;;;;;;35.78;23.88;;;;;;;;;;10138990;28;20114;-75
2023/10/11 13:41:37;;;;;;;31.45;22.95;;;;;;;;;;10145867;28;20155;-74
2023/10/11 13:46:29;;;;;;;47.70;27.80;;;;;;;;;;10143777;28;20047;-74
2023/10/11 13:51:21;;;;;;;43.92;28.05;;;;;;;;;;10145860;28;20135;-73
2023/10/11 13:56:21;;;;;;;31.60;25.55;;;;;;;;;;10144417;28;20466;-74
2023/10/11 14:06:55;;;;;;;36.50;24.25;;;;;;;;;;10072288;28;20123;-74
2023/10/11 14:11:51;;;;;;;39.08;25.02;;;;;;;;;;10143057;28;20529;-74
2023/10/11 14:16:42;;;;;;;36.15;26.60;;;;;;;;;;10133811;28;20044;-74
2023/10/11 14:21:39;;;;;;;29.67;22.95;;;;;;;;;;10140831;28;20045;-74
2023/10/11 14:26:33;;;;;;;38.65;25.65;;;;;;;;;;10130868;28;20037;-74
2023/10/11 14:31:25;;;;;;;37.25;24.65;;;;;;;;;;10138408;28;20475;-74
2023/10/11 14:36:23;;;;;;;40.05;25.75;;;;;;;;;;10139261;28;20048;-74
2023/10/11 14:41:21;;;;;;;34.20;24.08;;;;;;;;;;10136706;28;20416;-75
2023/10/11 14:46:13;;;;;;;;;;;;;;;;;;10139293;28;20127;-74
2023/10/11 14:51:06;;;;;;;39.50;26.92;;;;;;;;;;10136327;28;20323;-73
2023/10/11 14:56:02;;;;;;;37.30;25.27;;;;;;;;;;10136692;28;20080;-72
2023/10/11 15:00:55;;;;;;;41.92;24.65;;;;;;;;;;10139662;28;20139;-73
2023/10/11 15:05:47;;;;;;;32.92;25.15;;;;;;;;;;10122744;28;20064;-72
2023/10/11 15:10:43;;;;;;;42.15;26.55;;;;;;;;;;10139980;28;20048;-73
2023/10/11 15:15:35;;;;;;;37.90;25.95;;;;;;;;;;10136614;28;20075;-72
2023/10/11 15:20:30;;;;;;;40.95;26.75;;;;;;;;;;10138838;28;20041;-74
2023/10/11 15:25:22;;;;;;;40.47;26.55;;;;;;;;;;10139581;28;20472;-69
2023/10/11 15:35:33;;;;;;;35.83;27.63;;;;;;;;;;10138594;28;20044;-73
2023/10/11 15:40:26;;;;;;;40.65;25.42;;;;;;;;;;10139307;28;20033;-73
2023/10/11 15:45:19;;;;;;;31.73;24.48;;;;;;;;;;10138243;28;20045;-73
2023/10/11 15:50:14;;;;;;;45.75;27.60;;;;;;;;;;10135618;28;20037;-70
2023/10/11 15:55:07;;;;;;;47.03;28.05;;;;;;;;;;10137664;28;20135;-71
2023/10/11 15:59:59;;;;;;;32.13;25.95;;;;;;;;;;10108051;28;20044;-73
2023/10/11 16:04:51;;;;;;;46.05;29.17;;;;;;;;;;10147000;28;20471;-73
2023/10/11 16:09:43;;;;;;;43.58;25.25;;;;;;;;;;10148182;28;20064;-72
2023/10/11 16:14:35;;;;;;;28.52;22.05;;;;;;;;;;10148294;28;20049;-71
2023/10/11 16:19:28;;;;;;;38.20;21.05;;;;;;;;;;10147675;28;20076;-73
2023/10/11 16:24:20;;;;;;;38.65;22.35;;;;;;;;;;10147404;28;20052;-74
2023/10/11 16:29:12;;;;;;;25.70;21.05;;;;;;;;;;10145666;28;20070;-71
2023/10/11 16:34:04;;;;;;;29.98;21.50;;;;;;;;;;10147672;28;20123;-70
2023/10/11 16:38:56;;;;;;;32.03;20.80;;;;;;;;;;10146438;28;20048;-70
2023/10/11 16:43:48;;;;;;;32.55;23.17;;;;;;;;;;10147114;28;20037;-72
2023/10/11 16:48:40;;;;;;;33.90;23.95;;;;;;;;;;10147439;28;20036;-71
2023/10/11 16:53:33;;;;;;;36.47;24.80;;;;;;;;;;10147004;28;20033;-72
2023/10/11 16:58:26;;;;;;;40.80;25.10;;;;;;;;;;10146296;28;20518;-71
2023/10/11 17:03:21;;;;;;;35.35;22.42;;;;;;;;;;10147604;28;20409;-72
2023/10/11 17:08:14;;;;;;;31.73;23.35;;;;;;;;;;10145670;28;20036;-72
2023/10/11 17:13:06;;;;;;;46.20;25.50;;;;;;;;;;10145685;28;20044;-71
2023/10/11 17:18:02;;;;;;;33.17;24.73;;;;;;;;;;10143998;28;20742;-72
2023/10/11 17:22:54;;;;;;;36.97;26.27;;;;;;;;;;10147011;28;20118;-72
2023/10/11 17:27:48;;;;;;;41.58;27.52;;;;;;;;;;10145185;28;20471;-72
2023/10/11 17:32:41;;;;;;;43.80;26.92;;;;;;;;;;10145926;28;20608;-72
2023/10/11 17:37:33;;;;;;;41.95;28.88;;;;;;;;;;10108024;28;20556;-73
2023/10/11 17:42:25;;;;;;;47.53;31.13;;;;;;;;;;10143412;28;20046;-72
2023/10/11 17:47:17;;;;;;;41.85;29.33;;;;;;;;;;10150607;28;20124;-71
2023/10/11 17:52:09;;;;;;;58.65;30.33;;;;;;;;;;10188024;28;20147;-72
2023/10/11 17:57:01;;;;;;;45.17;27.90;;;;;;;;;;10181437;28;20463;-72
2023/10/11 18:01:53;;;;;;;40.95;28.92;;;;;;;;;;10185373;28;20439;-73
2023/10/11 18:06:46;;;;;;;52.78;29.27;;;;;;;;;;10165786;28;20475;-72
2023/10/11 18:11:38;;;;;;;48.55;30.20;;;;;;;;;;10169602;28;20044;-69
2023/10/11 18:16:30;;;;;;;44.10;28.90;;;;;;;;;;10178583;28;20054;-70
2023/10/11 18:21:22;;;;;;;50.58;31.60;;;;;;;;;;10184565;28;20052;-73
2023/10/11 18:26:14;;;;;;;49.92;30.92;;;;;;;;;;10170155;28;20462;-71
2023/10/11 18:31:10;;;;;;;48.42;30.75;;;;;;;;;;10169834;28;20036;-70
2023/10/11 18:36:02;;;;;;;50.42;31.35;;;;;;;;;;10181169;28;20033;-70
2023/10/11 18:40:55;;;;;;;48.78;31.30;;;;;;;;;;10178555;28;20428;-71
2023/10/11 18:45:49;;;;;;;47.67;30.90;;;;;;;;;;10146502;28;20044;-70
2023/10/11 18:50:44;;;;;;;51.35;33.75;;;;;;;;;;10175569;28;20463;-70
2023/10/11 18:55:38;;;;;;;51.35;33.95;;;;;;;;;;10175659;28;20051;-71
2023/10/11 19:00:33;;;;;;;48.22;30.70;;;;;;;;;;10162965;28;20142;-72
2023/10/11 19:05:26;;;;;;;48.28;33.20;;;;;;;;;;10165012;28;20051;-71
2023/10/11 19:10:19;;;;;;;48.78;29.65;;;;;;;;;;10168147;28;20048;-73
2023/10/11 19:15:11;;;;;;;48.65;29.20;;;;;;;;;;10144147;28;20370;-73
2023/10/11 19:20:09;;;;;;;44.58;29.23;;;;;;;;;;10163204;28;20052;-72
2023/10/11 19:25:01;;;;;;;49.17;31.40;;;;;;;;;;10156117;28;20094;-71
2023/10/11 19:29:53;;;;;;;44.97;29.38;;;;;;;;;;10156491;28;20041;-72
2023/10/11 19:34:48;;;;;;;40.03;26.92;;;;;;;;;;10162655;28;20104;-73
2023/10/11 19:39:42;;;;;;;41.20;29.27;;;;;;;;;;10164074;28;20097;-71
2023/10/11 19:44:34;;;;;;;45.00;28.30;;;;;;;;;;10159936;28;20359;-71
2023/10/11 19:49:26;;;;;;;40.95;28.35;;;;;;;;;;10141262;28;20102;-71
2023/10/11 19:54:18;;;;;;;42.85;29.67;;;;;;;;;;10130838;28;20063;-72
2023/10/11 19:59:11;;;;;;;45.53;30.70;;;;;;;;;;10176707;28;20048;-72
2023/10/11 20:04:04;;;;;;;46.78;30.05;;;;;;;;;;10155818;28;20056;-72
2023/10/11 20:09:01;;;;;;;51.67;31.08;;;;;;;;;;10179521;28;20051;-73
2023/10/11 20:13:55;;;;;;;46.78;32.15;;;;;;;;;;10181340;28;20048;-72
2023/10/11 20:18:49;;;;;;;56.05;34.83;;;;;;;;;;10184607;28;20059;-69
2023/10/11 20:23:42;;;;;;;45.83;33.60;;;;;;;;;;10182858;28;20048;-71
2023/10/11 20:28:37;;;;;;;52.35;34.15;;;;;;;;;;10183884;28;20612;-70
2023/10/11 20:33:29;;;;;;;52.20;34.47;;;;;;;;;;10183860;28;20355;-72
2023/10/11 20:38:22;;;;;;;61.72;35.13;;;;;;;;;;10183461;28;20055;-72
2023/10/11 20:43:13;;;;;;;53.80;35.25;;;;;;;;;;10183514;28;20052;-71
2023/10/11 20:48:06;;;;;;;50.35;34.47;;;;;;;;;;10188470;28;20040;-72
2023/10/11 20:53:03;;;;;;;56.00;34.78;;;;;;;;;;10154281;28;20101;-70
2023/10/11 21:03:10;;;;;;;58.83;36.72;;;;;;;;;;10172289;28;20056;-71
2023/10/11 21:08:02;;;;;;;58.90;35.20;;;;;;;;;;10175110;28;20473;-71
2023/10/11 21:12:54;;;;;;;59.60;36.03;;;;;;;;;;10189217;28;20052;-70
2023/10/11 21:17:47;;;;;;;56.42;35.03;;;;;;;;;;10190419;28;20391;-72
2023/10/11 21:22:40;;;;;;;50.10;35.20;;;;;;;;;;10169115;28;20045;-72
2023/10/11 21:27:32;;;;;;;47.92;34.63;;;;;;;;;;10158148;28;20158;-70
2023/10/11 21:32:24;;;;;;;54.42;34.25;;;;;;;;;;10159902;28;20139;-73
2023/10/11 21:37:16;;;;;;;50.10;35.10;;;;;;;;;;10183646;28;20106;-73
2023/10/11 21:42:07;;;;;;;57.20;38.85;;;;;;;;;;10185227;28;20059;-72
2023/10/11 21:46:59;;;;;;;59.40;36.58;;;;;;;;;;10185405;28;20143;-72
2023/10/11 21:51:51;;;;;;;56.60;33.72;;;;;;;;;;10184795;28;20048;-71
2023/10/11 21:56:43;;;;;;;58.40;35.95;;;;;;;;;;10186860;28;20101;-72
2023/10/11 22:01:35;;;;;;;53.30;34.15;;;;;;;;;;10183834;28;20048;-72
2023/10/11 22:06:27;;;;;;;51.03;33.30;;;;;;;;;;10183931;28;20039;-73
2023/10/11 22:11:20;;;;;;;52.90;35.00;;;;;;;;;;10184096;28;20086;-71
2023/10/11 22:16:12;;;;;;;52.90;32.83;;;;;;;;;;10186611;28;20094;-72
2023/10/11 22:21:05;;;;;;;48.53;32.47;;;;;;;;;;10187912;28;20207;-73
2023/10/11 22:25:57;;;;;;;50.13;32.25;;;;;;;;;;10188232;28;20048;-73
2023/10/11 22:30:49;;;;;;;58.70;35.10;;;;;;;;;;10186900;28;20052;-73
2023/10/11 22:35:42;;;;;;;43.72;31.73;;;;;;;;;;10174620;28;20048;-73
2023/10/11 22:40:38;;;;;;;46.25;30.88;;;;;;;;;;10186635;28;20048;-72
2023/10/11 22:45:32;;;;;;;46.97;32.80;;;;;;;;;;10185971;28;20040;-73
2023/10/11 22:50:24;;;;;;;51.67;32.30;;;;;;;;;;10174142;28;20049;-73
2023/10/11 22:55:18;;;;;;;53.00;30.67;;;;;;;;;;10145835;28;20053;-73
2023/10/11 23:00:32;;;;;;;41.70;29.25;;;;;;;;;;10145377;28;20506;-72
2023/10/11 23:05:24;;;;;;;39.17;28.38;;;;;;;;;;10145922;28;20048;-73
2023/10/11 23:10:19;;;;;;;45.15;29.88;;;;;;;;;;10146511;28;20511;-73
2023/10/11 23:15:16;;;;;;;37.70;26.73;;;;;;;;;;10145780;28;20033;-72
2023/10/11 23:20:16;;;;;;;41.67;28.23;;;;;;;;;;10146308;28;20519;-72
2023/10/11 23:25:09;;;;;;;39.80;28.08;;;;;;;;;;10143263;28;20094;-71
2023/10/11 23:30:01;;;;;;;34.85;23.48;;;;;;;;;;10140376;28;20075;-74
2023/10/11 23:34:53;;;;;;;29.50;23.73;;;;;;;;;;10142143;28;20068;-73
2023/10/11 23:40:10;;;;;;;33.00;24.17;;;;;;;;;;10142977;28;20080;-73
2023/10/11 23:44:58;;;;;;;33.03;23.17;;;;;;;;;;10141357;28;20045;-73
2023/10/11 23:49:55;;;;;;;37.50;24.60;;;;;;;;;;10142511;28;20048;-73
2023/10/11 23:54:50;;;;;;;35.15;25.38;;;;;;;;;;10109287;28;20056;-73
2023/10/11 23:59:44;;;;;;;45.75;24.55;;;;;;;;;;10141497;28;20044;-72
